sensor_id;sensor_type;location;lat;lon;timestamp;temperature;humidity
78788;DHT22;68131;52.508;5.502;2024-01-30T00:01:58;8.80;76.80
78788;DHT22;68131;52.508;5.502;2024-01-30T00:04:30;8.70;76.90
78788;DHT22;68131;52.508;5.502;2024-01-30T00:06:59;8.70;77.00
78788;DHT22;68131;52.508;5.502;2024-01-30T00:09:28;8.70;77.00
78788;DHT22;68131;52.508;5.502;2024-01-30T00:11:57;8.70;77.00
78788;DHT22;68131;52.508;5.502;2024-01-30T00:14:27;8.70;76.90
78788;DHT22;68131;52.508;5.502;2024-01-30T00:16:56;8.60;76.90
78788;DHT22;68131;52.508;5.502;2024-01-30T00:19:25;8.60;76.90
78788;DHT22;68131;52.508;5.502;2024-01-30T00:21:56;8.60;76.90
78788;DHT22;68131;52.508;5.502;2024-01-30T00:24:25;8.60;76.80
78788;DHT22;68131;52.508;5.502;2024-01-30T00:26:55;8.50;76.90
78788;DHT22;68131;52.508;5.502;2024-01-30T00:29:24;8.50;76.90
78788;DHT22;68131;52.508;5.502;2024-01-30T00:31:56;8.50;76.90
78788;DHT22;68131;52.508;5.502;2024-01-30T00:34:25;8.50;76.90
78788;DHT22;68131;52.508;5.502;2024-01-30T00:36:57;8.50;76.90
78788;DHT22;68131;52.508;5.502;2024-01-30T00:39:26;8.50;77.00
78788;DHT22;68131;52.508;5.502;2024-01-30T00:41:55;8.50;77.00
78788;DHT22;68131;52.508;5.502;2024-01-30T00:44:24;8.50;77.00
78788;DHT22;68131;52.508;5.502;2024-01-30T00:46:54;8.50;77.00
78788;DHT22;68131;52.508;5.502;2024-01-30T00:49:24;8.50;77.10
78788;DHT22;68131;52.508;5.502;2024-01-30T00:51:54;8.40;77.10
78788;DHT22;68131;52.508;5.502;2024-01-30T00:54:25;8.40;77.20
78788;DHT22;68131;52.508;5.502;2024-01-30T00:56:55;8.40;77.30
78788;DHT22;68131;52.508;5.502;2024-01-30T00:59:24;8.40;77.20
78788;DHT22;68131;52.508;5.502;2024-01-30T01:01:53;8.40;77.30
78788;DHT22;68131;52.508;5.502;2024-01-30T01:04:22;8.40;77.40
78788;DHT22;68131;52.508;5.502;2024-01-30T01:06:54;8.40;77.60
78788;DHT22;68131;52.508;5.502;2024-01-30T01:09:26;8.40;77.70
78788;DHT22;68131;52.508;5.502;2024-01-30T01:11:55;8.40;77.80
78788;DHT22;68131;52.508;5.502;2024-01-30T01:14:24;8.40;77.80
78788;DHT22;68131;52.508;5.502;2024-01-30T01:16:53;8.40;77.80
78788;DHT22;68131;52.508;5.502;2024-01-30T01:19:22;8.40;77.90
78788;DHT22;68131;52.508;5.502;2024-01-30T01:21:51;8.40;78.10
78788;DHT22;68131;52.508;5.502;2024-01-30T01:24:21;8.40;78.20
78788;DHT22;68131;52.508;5.502;2024-01-30T01:26:53;8.50;78.30
78788;DHT22;68131;52.508;5.502;2024-01-30T01:29:23;8.50;78.40
78788;DHT22;68131;52.508;5.502;2024-01-30T01:31:54;8.50;78.40
78788;DHT22;68131;52.508;5.502;2024-01-30T01:34:24;8.50;78.40
78788;DHT22;68131;52.508;5.502;2024-01-30T01:36:53;8.50;78.50
78788;DHT22;68131;52.508;5.502;2024-01-30T01:39:22;8.50;78.80
78788;DHT22;68131;52.508;5.502;2024-01-30T01:41:54;8.60;79.00
78788;DHT22;68131;52.508;5.502;2024-01-30T01:44:23;8.60;79.00
78788;DHT22;68131;52.508;5.502;2024-01-30T01:46:54;8.60;79.00
78788;DHT22;68131;52.508;5.502;2024-01-30T01:49:27;8.60;79.00
78788;DHT22;68131;52.508;5.502;2024-01-30T01:52:00;8.60;79.00
78788;DHT22;68131;52.508;5.502;2024-01-30T01:54:29;8.60;79.00
78788;DHT22;68131;52.508;5.502;2024-01-30T01:57:01;8.60;78.90
78788;DHT22;68131;52.508;5.502;2024-01-30T01:59:30;8.60;78.90
78788;DHT22;68131;52.508;5.502;2024-01-30T02:02:01;8.60;78.80
78788;DHT22;68131;52.508;5.502;2024-01-30T02:04:31;8.60;78.80
78788;DHT22;68131;52.508;5.502;2024-01-30T02:07:00;8.60;78.80
78788;DHT22;68131;52.508;5.502;2024-01-30T02:09:29;8.60;78.90
78788;DHT22;68131;52.508;5.502;2024-01-30T02:12:01;8.60;78.80
78788;DHT22;68131;52.508;5.502;2024-01-30T02:14:30;8.60;78.80
78788;DHT22;68131;52.508;5.502;2024-01-30T02:16:59;8.60;78.70
78788;DHT22;68131;52.508;5.502;2024-01-30T02:19:28;8.60;78.70
78788;DHT22;68131;52.508;5.502;2024-01-30T02:22:00;8.60;78.70
78788;DHT22;68131;52.508;5.502;2024-01-30T02:24:29;8.60;78.70
78788;DHT22;68131;52.508;5.502;2024-01-30T02:26:58;8.60;78.70
78788;DHT22;68131;52.508;5.502;2024-01-30T02:29:27;8.60;78.70
78788;DHT22;68131;52.508;5.502;2024-01-30T02:31:57;8.60;78.80
78788;DHT22;68131;52.508;5.502;2024-01-30T02:34:26;8.60;78.80
78788;DHT22;68131;52.508;5.502;2024-01-30T02:36:55;8.60;79.10
78788;DHT22;68131;52.508;5.502;2024-01-30T02:39:27;8.60;79.10
78788;DHT22;68131;52.508;5.502;2024-01-30T02:41:56;8.60;79.20
78788;DHT22;68131;52.508;5.502;2024-01-30T02:44:25;8.60;79.40
78788;DHT22;68131;52.508;5.502;2024-01-30T02:46:54;8.60;79.30
78788;DHT22;68131;52.508;5.502;2024-01-30T02:49:23;8.60;79.40
78788;DHT22;68131;52.508;5.502;2024-01-30T02:51:54;8.60;79.50
78788;DHT22;68131;52.508;5.502;2024-01-30T02:54:27;8.60;79.50
78788;DHT22;68131;52.508;5.502;2024-01-30T02:56:56;8.60;79.50
78788;DHT22;68131;52.508;5.502;2024-01-30T02:59:26;8.60;79.50
78788;DHT22;68131;52.508;5.502;2024-01-30T03:01:55;8.60;79.50
78788;DHT22;68131;52.508;5.502;2024-01-30T03:04:27;8.60;79.50
78788;DHT22;68131;52.508;5.502;2024-01-30T03:06:56;8.60;79.50
78788;DHT22;68131;52.508;5.502;2024-01-30T03:09:27;8.60;79.40
78788;DHT22;68131;52.508;5.502;2024-01-30T03:11:57;8.60;79.30
78788;DHT22;68131;52.508;5.502;2024-01-30T03:14:27;8.60;79.30
78788;DHT22;68131;52.508;5.502;2024-01-30T03:16:56;8.60;79.30
78788;DHT22;68131;52.508;5.502;2024-01-30T03:19:25;8.60;79.30
78788;DHT22;68131;52.508;5.502;2024-01-30T03:21:54;8.60;79.30
78788;DHT22;68131;52.508;5.502;2024-01-30T03:24:23;8.60;79.20
78788;DHT22;68131;52.508;5.502;2024-01-30T03:26:55;8.50;79.20
78788;DHT22;68131;52.508;5.502;2024-01-30T03:29:24;8.50;79.20
78788;DHT22;68131;52.508;5.502;2024-01-30T03:31:53;8.50;79.20
78788;DHT22;68131;52.508;5.502;2024-01-30T03:34:22;8.50;79.20
78788;DHT22;68131;52.508;5.502;2024-01-30T03:36:51;8.50;79.10
78788;DHT22;68131;52.508;5.502;2024-01-30T03:39:23;8.50;79.20
78788;DHT22;68131;52.508;5.502;2024-01-30T03:41:55;8.50;79.20
78788;DHT22;68131;52.508;5.502;2024-01-30T03:44:26;8.50;79.10
78788;DHT22;68131;52.508;5.502;2024-01-30T03:46:55;8.50;79.10
78788;DHT22;68131;52.508;5.502;2024-01-30T03:49:27;8.50;79.10
78788;DHT22;68131;52.508;5.502;2024-01-30T03:51:58;8.50;79.10
78788;DHT22;68131;52.508;5.502;2024-01-30T03:54:27;8.50;79.10
78788;DHT22;68131;52.508;5.502;2024-01-30T03:57:00;8.50;79.20
78788;DHT22;68131;52.508;5.502;2024-01-30T03:59:29;8.50;79.20
78788;DHT22;68131;52.508;5.502;2024-01-30T04:01:58;8.50;79.20
78788;DHT22;68131;52.508;5.502;2024-01-30T04:04:27;8.50;79.20
78788;DHT22;68131;52.508;5.502;2024-01-30T04:06:56;8.50;79.20
78788;DHT22;68131;52.508;5.502;2024-01-30T04:09:28;8.50;79.20
78788;DHT22;68131;52.508;5.502;2024-01-30T04:12:01;8.60;79.10
78788;DHT22;68131;52.508;5.502;2024-01-30T04:14:30;8.60;79.10
78788;DHT22;68131;52.508;5.502;2024-01-30T04:16:59;8.60;79.10
78788;DHT22;68131;52.508;5.502;2024-01-30T04:19:28;8.60;79.10
78788;DHT22;68131;52.508;5.502;2024-01-30T04:21:57;8.60;79.00
78788;DHT22;68131;52.508;5.502;2024-01-30T04:24:26;8.60;79.00
78788;DHT22;68131;52.508;5.502;2024-01-30T04:26:55;8.60;79.00
78788;DHT22;68131;52.508;5.502;2024-01-30T04:29:27;8.60;79.00
78788;DHT22;68131;52.508;5.502;2024-01-30T04:31:56;8.60;79.00
78788;DHT22;68131;52.508;5.502;2024-01-30T04:34:25;8.70;78.90
78788;DHT22;68131;52.508;5.502;2024-01-30T04:36:57;8.70;78.90
78788;DHT22;68131;52.508;5.502;2024-01-30T04:39:27;8.70;78.80
78788;DHT22;68131;52.508;5.502;2024-01-30T04:41:56;8.70;78.80
78788;DHT22;68131;52.508;5.502;2024-01-30T04:44:28;8.70;78.70
78788;DHT22;68131;52.508;5.502;2024-01-30T04:46:58;8.70;78.70
78788;DHT22;68131;52.508;5.502;2024-01-30T04:49:27;8.70;78.70
78788;DHT22;68131;52.508;5.502;2024-01-30T04:51:57;8.70;78.70
78788;DHT22;68131;52.508;5.502;2024-01-30T04:54:26;8.70;78.60
78788;DHT22;68131;52.508;5.502;2024-01-30T04:56:55;8.70;78.70
78788;DHT22;68131;52.508;5.502;2024-01-30T04:59:27;8.80;78.70
78788;DHT22;68131;52.508;5.502;2024-01-30T05:01:56;8.80;78.70
78788;DHT22;68131;52.508;5.502;2024-01-30T05:04:25;8.80;78.70
78788;DHT22;68131;52.508;5.502;2024-01-30T05:06:54;8.80;78.70
78788;DHT22;68131;52.508;5.502;2024-01-30T05:09:23;8.80;78.60
78788;DHT22;68131;52.508;5.502;2024-01-30T05:11:56;8.80;78.50
78788;DHT22;68131;52.508;5.502;2024-01-30T05:14:27;8.80;78.40
78788;DHT22;68131;52.508;5.502;2024-01-30T05:16:56;8.80;78.40
78788;DHT22;68131;52.508;5.502;2024-01-30T05:19:26;8.80;78.30
78788;DHT22;68131;52.508;5.502;2024-01-30T05:21:55;8.80;78.40
78788;DHT22;68131;52.508;5.502;2024-01-30T05:24:24;8.80;78.40
78788;DHT22;68131;52.508;5.502;2024-01-30T05:26:53;8.80;78.40
78788;DHT22;68131;52.508;5.502;2024-01-30T05:29:22;8.80;78.40
78788;DHT22;68131;52.508;5.502;2024-01-30T05:31:54;8.80;78.40
78788;DHT22;68131;52.508;5.502;2024-01-30T05:34:23;8.80;78.50
78788;DHT22;68131;52.508;5.502;2024-01-30T05:36:52;8.90;78.50
78788;DHT22;68131;52.508;5.502;2024-01-30T05:39:21;8.80;78.50
78788;DHT22;68131;52.508;5.502;2024-01-30T05:41:50;8.90;78.50
78788;DHT22;68131;52.508;5.502;2024-01-30T05:44:19;8.90;78.40
78788;DHT22;68131;52.508;5.502;2024-01-30T05:46:48;8.90;78.40
78788;DHT22;68131;52.508;5.502;2024-01-30T05:49:20;8.90;78.40
78788;DHT22;68131;52.508;5.502;2024-01-30T05:51:49;8.90;78.40
78788;DHT22;68131;52.508;5.502;2024-01-30T05:54:18;8.90;78.40
78788;DHT22;68131;52.508;5.502;2024-01-30T05:56:47;8.90;78.40
78788;DHT22;68131;52.508;5.502;2024-01-30T05:59:19;8.90;78.40
78788;DHT22;68131;52.508;5.502;2024-01-30T06:01:48;8.90;78.40
78788;DHT22;68131;52.508;5.502;2024-01-30T06:04:20;8.90;78.40
78788;DHT22;68131;52.508;5.502;2024-01-30T06:06:49;8.90;78.50
78788;DHT22;68131;52.508;5.502;2024-01-30T06:09:18;8.90;78.50
78788;DHT22;68131;52.508;5.502;2024-01-30T06:11:47;8.90;78.50
78788;DHT22;68131;52.508;5.502;2024-01-30T06:14:16;9.00;78.50
78788;DHT22;68131;52.508;5.502;2024-01-30T06:16:48;9.00;78.60
78788;DHT22;68131;52.508;5.502;2024-01-30T06:19:20;9.00;78.60
78788;DHT22;68131;52.508;5.502;2024-01-30T06:21:49;9.00;78.60
78788;DHT22;68131;52.508;5.502;2024-01-30T06:24:18;9.00;78.60
78788;DHT22;68131;52.508;5.502;2024-01-30T06:26:47;9.00;78.50
78788;DHT22;68131;52.508;5.502;2024-01-30T06:29:19;9.00;78.60
78788;DHT22;68131;52.508;5.502;2024-01-30T06:31:49;9.00;78.50
78788;DHT22;68131;52.508;5.502;2024-01-30T06:34:21;9.00;78.50
78788;DHT22;68131;52.508;5.502;2024-01-30T06:36:52;9.10;78.50
78788;DHT22;68131;52.508;5.502;2024-01-30T06:39:21;9.10;78.50
78788;DHT22;68131;52.508;5.502;2024-01-30T06:41:51;9.10;78.40
78788;DHT22;68131;52.508;5.502;2024-01-30T06:44:20;9.10;78.50
78788;DHT22;68131;52.508;5.502;2024-01-30T06:46:49;9.10;78.40
78788;DHT22;68131;52.508;5.502;2024-01-30T06:49:21;9.10;78.40
78788;DHT22;68131;52.508;5.502;2024-01-30T06:51:50;9.10;78.40
78788;DHT22;68131;52.508;5.502;2024-01-30T06:54:19;9.20;78.40
78788;DHT22;68131;52.508;5.502;2024-01-30T06:56:49;9.20;78.40
78788;DHT22;68131;52.508;5.502;2024-01-30T06:59:18;9.20;78.40
78788;DHT22;68131;52.508;5.502;2024-01-30T07:01:47;9.30;78.50
78788;DHT22;68131;52.508;5.502;2024-01-30T07:04:16;9.30;78.50
78788;DHT22;68131;52.508;5.502;2024-01-30T07:06:48;9.30;78.50
78788;DHT22;68131;52.508;5.502;2024-01-30T07:09:17;9.40;78.40
78788;DHT22;68131;52.508;5.502;2024-01-30T07:11:49;9.40;78.40
78788;DHT22;68131;52.508;5.502;2024-01-30T07:14:18;9.50;78.30
78788;DHT22;68131;52.508;5.502;2024-01-30T07:16:47;9.50;78.30
78788;DHT22;68131;52.508;5.502;2024-01-30T07:19:19;9.50;78.40
78788;DHT22;68131;52.508;5.502;2024-01-30T07:21:53;9.50;78.40
78788;DHT22;68131;52.508;5.502;2024-01-30T07:24:22;9.60;78.40
78788;DHT22;68131;52.508;5.502;2024-01-30T07:26:52;9.60;78.50
78788;DHT22;68131;52.508;5.502;2024-01-30T07:29:21;9.60;78.50
78788;DHT22;68131;52.508;5.502;2024-01-30T07:31:50;9.60;78.40
78788;DHT22;68131;52.508;5.502;2024-01-30T07:34:19;9.60;78.30
78788;DHT22;68131;52.508;5.502;2024-01-30T07:36:51;9.60;78.40
78788;DHT22;68131;52.508;5.502;2024-01-30T07:39:20;9.60;78.40
78788;DHT22;68131;52.508;5.502;2024-01-30T07:41:49;9.60;78.50
78788;DHT22;68131;52.508;5.502;2024-01-30T07:44:18;9.60;78.50
78788;DHT22;68131;52.508;5.502;2024-01-30T07:46:47;9.60;78.50
78788;DHT22;68131;52.508;5.502;2024-01-30T07:49:18;9.60;78.50
78788;DHT22;68131;52.508;5.502;2024-01-30T07:51:47;9.70;78.50
78788;DHT22;68131;52.508;5.502;2024-01-30T07:54:19;9.70;78.50
78788;DHT22;68131;52.508;5.502;2024-01-30T07:56:49;9.70;78.50
78788;DHT22;68131;52.508;5.502;2024-01-30T07:59:18;9.80;78.40
78788;DHT22;68131;52.508;5.502;2024-01-30T08:02:03;9.80;78.30
78788;DHT22;68131;52.508;5.502;2024-01-30T08:04:32;9.80;78.40
78788;DHT22;68131;52.508;5.502;2024-01-30T08:07:04;9.80;78.30
78788;DHT22;68131;52.508;5.502;2024-01-30T08:09:36;9.80;78.30
78788;DHT22;68131;52.508;5.502;2024-01-30T08:12:05;9.80;78.30
78788;DHT22;68131;52.508;5.502;2024-01-30T08:14:39;9.80;78.40
78788;DHT22;68131;52.508;5.502;2024-01-30T08:17:08;9.80;78.40
78788;DHT22;68131;52.508;5.502;2024-01-30T08:19:37;9.80;78.40
78788;DHT22;68131;52.508;5.502;2024-01-30T08:22:08;9.90;78.40
78788;DHT22;68131;52.508;5.502;2024-01-30T08:24:41;9.90;78.50
78788;DHT22;68131;52.508;5.502;2024-01-30T08:27:10;9.90;78.50
78788;DHT22;68131;52.508;5.502;2024-01-30T08:29:39;10.00;78.50
78788;DHT22;68131;52.508;5.502;2024-01-30T08:32:10;10.00;78.50
78788;DHT22;68131;52.508;5.502;2024-01-30T08:34:39;10.00;78.50
78788;DHT22;68131;52.508;5.502;2024-01-30T08:37:11;10.00;78.60
78788;DHT22;68131;52.508;5.502;2024-01-30T08:39:45;10.10;78.60
78788;DHT22;68131;52.508;5.502;2024-01-30T08:42:14;10.10;78.60
78788;DHT22;68131;52.508;5.502;2024-01-30T08:44:44;10.10;78.70
78788;DHT22;68131;52.508;5.502;2024-01-30T08:47:15;10.10;78.60
78788;DHT22;68131;52.508;5.502;2024-01-30T08:49:45;10.20;78.70
78788;DHT22;68131;52.508;5.502;2024-01-30T08:52:14;10.20;78.70
78788;DHT22;68131;52.508;5.502;2024-01-30T08:54:46;10.30;78.70
78788;DHT22;68131;52.508;5.502;2024-01-30T08:57:19;10.30;78.60
78788;DHT22;68131;52.508;5.502;2024-01-30T08:59:50;10.30;78.60
78788;DHT22;68131;52.508;5.502;2024-01-30T09:02:19;10.30;78.60
78788;DHT22;68131;52.508;5.502;2024-01-30T09:04:54;10.40;78.60
78788;DHT22;68131;52.508;5.502;2024-01-30T09:07:24;10.40;78.60
78788;DHT22;68131;52.508;5.502;2024-01-30T09:09:56;10.40;78.70
78788;DHT22;68131;52.508;5.502;2024-01-30T09:12:28;10.50;78.70
78788;DHT22;68131;52.508;5.502;2024-01-30T09:14:59;10.50;78.80
78788;DHT22;68131;52.508;5.502;2024-01-30T09:17:28;10.60;78.90
78788;DHT22;68131;52.508;5.502;2024-01-30T09:19:57;10.70;78.90
78788;DHT22;68131;52.508;5.502;2024-01-30T09:22:26;10.70;79.00
78788;DHT22;68131;52.508;5.502;2024-01-30T09:24:58;10.80;79.00
78788;DHT22;68131;52.508;5.502;2024-01-30T09:27:27;10.90;79.00
78788;DHT22;68131;52.508;5.502;2024-01-30T09:29:57;10.90;79.00
78788;DHT22;68131;52.508;5.502;2024-01-30T09:32:26;11.00;78.90
78788;DHT22;68131;52.508;5.502;2024-01-30T09:34:55;11.10;78.80
78788;DHT22;68131;52.508;5.502;2024-01-30T09:37:24;11.10;78.80
78788;DHT22;68131;52.508;5.502;2024-01-30T09:39:54;11.20;78.70
78788;DHT22;68131;52.508;5.502;2024-01-30T09:42:33;11.30;78.50
78788;DHT22;68131;52.508;5.502;2024-01-30T09:45:04;11.30;78.30
78788;DHT22;68131;52.508;5.502;2024-01-30T09:47:42;11.40;78.20
78788;DHT22;68131;52.508;5.502;2024-01-30T09:50:13;11.40;78.20
78788;DHT22;68131;52.508;5.502;2024-01-30T09:52:43;11.50;78.10
78788;DHT22;68131;52.508;5.502;2024-01-30T09:55:13;11.50;77.80
78788;DHT22;68131;52.508;5.502;2024-01-30T09:57:45;11.60;77.70
78788;DHT22;68131;52.508;5.502;2024-01-30T10:00:15;11.60;77.60
78788;DHT22;68131;52.508;5.502;2024-01-30T10:02:44;11.60;77.50
78788;DHT22;68131;52.508;5.502;2024-01-30T10:05:19;11.60;77.40
78788;DHT22;68131;52.508;5.502;2024-01-30T10:07:53;11.60;77.40
78788;DHT22;68131;52.508;5.502;2024-01-30T10:10:26;11.60;77.30
78788;DHT22;68131;52.508;5.502;2024-01-30T10:12:57;11.70;77.20
78788;DHT22;68131;52.508;5.502;2024-01-30T10:15:28;11.70;77.20
78788;DHT22;68131;52.508;5.502;2024-01-30T10:17:57;11.70;76.90
78788;DHT22;68131;52.508;5.502;2024-01-30T10:20:26;11.60;76.50
78788;DHT22;68131;52.508;5.502;2024-01-30T10:22:56;11.70;76.50
78788;DHT22;68131;52.508;5.502;2024-01-30T10:25:25;11.70;76.50
78788;DHT22;68131;52.508;5.502;2024-01-30T10:27:58;11.70;76.50
78788;DHT22;68131;52.508;5.502;2024-01-30T10:30:27;11.70;76.50
78788;DHT22;68131;52.508;5.502;2024-01-30T10:32:57;11.70;76.50
78788;DHT22;68131;52.508;5.502;2024-01-30T10:35:32;11.70;76.30
78788;DHT22;68131;52.508;5.502;2024-01-30T10:38:02;11.70;76.30
78788;DHT22;68131;52.508;5.502;2024-01-30T10:40:33;11.70;76.10
78788;DHT22;68131;52.508;5.502;2024-01-30T10:43:05;11.70;76.10
78788;DHT22;68131;52.508;5.502;2024-01-30T10:45:38;11.70;76.00
78788;DHT22;68131;52.508;5.502;2024-01-30T10:48:13;11.70;75.90
78788;DHT22;68131;52.508;5.502;2024-01-30T10:50:45;11.80;75.50
78788;DHT22;68131;52.508;5.502;2024-01-30T10:53:16;11.70;75.40
78788;DHT22;68131;52.508;5.502;2024-01-30T10:55:51;11.70;75.40
78788;DHT22;68131;52.508;5.502;2024-01-30T10:58:23;11.70;75.20
78788;DHT22;68131;52.508;5.502;2024-01-30T11:00:53;11.70;75.00
78788;DHT22;68131;52.508;5.502;2024-01-30T11:03:23;11.60;74.40
78788;DHT22;68131;52.508;5.502;2024-01-30T11:05:59;11.60;74.30
78788;DHT22;68131;52.508;5.502;2024-01-30T11:08:32;11.50;74.10
78788;DHT22;68131;52.508;5.502;2024-01-30T11:11:01;11.50;73.60
78788;DHT22;68131;52.508;5.502;2024-01-30T11:13:33;11.50;73.50
78788;DHT22;68131;52.508;5.502;2024-01-30T11:16:04;11.50;73.10
78788;DHT22;68131;52.508;5.502;2024-01-30T11:18:35;11.50;72.90
78788;DHT22;68131;52.508;5.502;2024-01-30T11:21:05;11.50;72.70
78788;DHT22;68131;52.508;5.502;2024-01-30T11:23:34;11.40;72.60
78788;DHT22;68131;52.508;5.502;2024-01-30T11:26:04;11.40;72.40
78788;DHT22;68131;52.508;5.502;2024-01-30T11:28:37;11.40;72.30
78788;DHT22;68131;52.508;5.502;2024-01-30T11:31:07;11.40;72.20
78788;DHT22;68131;52.508;5.502;2024-01-30T11:33:38;11.30;72.00
78788;DHT22;68131;52.508;5.502;2024-01-30T11:36:08;11.30;72.20
78788;DHT22;68131;52.508;5.502;2024-01-30T11:38:37;11.30;72.20
78788;DHT22;68131;52.508;5.502;2024-01-30T11:41:06;11.20;72.20
78788;DHT22;68131;52.508;5.502;2024-01-30T11:43:41;11.20;72.30
78788;DHT22;68131;52.508;5.502;2024-01-30T11:46:11;11.10;72.60
78788;DHT22;68131;52.508;5.502;2024-01-30T11:48:40;11.10;72.70
78788;DHT22;68131;52.508;5.502;2024-01-30T11:51:09;11.10;72.80
78788;DHT22;68131;52.508;5.502;2024-01-30T11:53:38;11.00;72.70
78788;DHT22;68131;52.508;5.502;2024-01-30T11:56:12;11.00;72.90
78788;DHT22;68131;52.508;5.502;2024-01-30T11:58:45;10.90;72.70
78788;DHT22;68131;52.508;5.502;2024-01-30T12:01:14;10.90;72.80
78788;DHT22;68131;52.508;5.502;2024-01-30T12:03:49;10.80;72.90
78788;DHT22;68131;52.508;5.502;2024-01-30T12:06:21;10.80;73.00
78788;DHT22;68131;52.508;5.502;2024-01-30T12:08:59;10.80;73.20
78788;DHT22;68131;52.508;5.502;2024-01-30T12:11:30;10.80;73.30
78788;DHT22;68131;52.508;5.502;2024-01-30T12:14:02;10.80;73.50
78788;DHT22;68131;52.508;5.502;2024-01-30T12:16:31;10.70;73.60
78788;DHT22;68131;52.508;5.502;2024-01-30T12:19:00;10.70;73.70
78788;DHT22;68131;52.508;5.502;2024-01-30T12:21:30;10.70;73.80
78788;DHT22;68131;52.508;5.502;2024-01-30T12:23:59;10.70;73.90
78788;DHT22;68131;52.508;5.502;2024-01-30T12:26:29;10.60;74.00
78788;DHT22;68131;52.508;5.502;2024-01-30T12:28:58;10.60;74.10
78788;DHT22;68131;52.508;5.502;2024-01-30T12:31:32;10.60;74.20
78788;DHT22;68131;52.508;5.502;2024-01-30T12:34:01;10.60;74.20
78788;DHT22;68131;52.508;5.502;2024-01-30T12:36:31;10.60;74.20
78788;DHT22;68131;52.508;5.502;2024-01-30T12:39:00;10.60;73.80
78788;DHT22;68131;52.508;5.502;2024-01-30T12:41:30;10.60;73.70
78788;DHT22;68131;52.508;5.502;2024-01-30T12:43:59;10.60;73.80
78788;DHT22;68131;52.508;5.502;2024-01-30T12:46:31;10.60;74.00
78788;DHT22;68131;52.508;5.502;2024-01-30T12:49:02;10.70;74.10
78788;DHT22;68131;52.508;5.502;2024-01-30T12:51:34;10.70;74.20
78788;DHT22;68131;52.508;5.502;2024-01-30T12:54:06;10.60;74.10
78788;DHT22;68131;52.508;5.502;2024-01-30T12:56:35;10.60;74.20
78788;DHT22;68131;52.508;5.502;2024-01-30T12:59:07;10.60;74.30
78788;DHT22;68131;52.508;5.502;2024-01-30T13:01:39;10.60;74.50
78788;DHT22;68131;52.508;5.502;2024-01-30T13:04:08;10.50;74.70
78788;DHT22;68131;52.508;5.502;2024-01-30T13:06:37;10.50;74.90
78788;DHT22;68131;52.508;5.502;2024-01-30T13:09:06;10.50;75.60
78788;DHT22;68131;52.508;5.502;2024-01-30T13:11:35;10.40;75.80
78788;DHT22;68131;52.508;5.502;2024-01-30T13:14:05;10.40;76.00
78788;DHT22;68131;52.508;5.502;2024-01-30T13:16:34;10.40;76.30
78788;DHT22;68131;52.508;5.502;2024-01-30T13:19:06;10.30;76.60
78788;DHT22;68131;52.508;5.502;2024-01-30T13:21:35;10.30;77.10
78788;DHT22;68131;52.508;5.502;2024-01-30T13:24:05;10.20;77.40
78788;DHT22;68131;52.508;5.502;2024-01-30T13:26:37;10.20;77.80
78788;DHT22;68131;52.508;5.502;2024-01-30T13:29:06;10.10;77.90
78788;DHT22;68131;52.508;5.502;2024-01-30T13:31:35;10.10;78.20
78788;DHT22;68131;52.508;5.502;2024-01-30T13:34:12;10.10;78.30
78788;DHT22;68131;52.508;5.502;2024-01-30T13:36:41;10.00;78.50
78788;DHT22;68131;52.508;5.502;2024-01-30T13:39:11;10.00;78.50
78788;DHT22;68131;52.508;5.502;2024-01-30T13:41:41;10.00;78.60
78788;DHT22;68131;52.508;5.502;2024-01-30T13:44:11;10.00;78.60
78788;DHT22;68131;52.508;5.502;2024-01-30T13:46:46;10.00;78.70
78788;DHT22;68131;52.508;5.502;2024-01-30T13:49:18;10.00;78.80
78788;DHT22;68131;52.508;5.502;2024-01-30T13:51:48;10.00;78.90
78788;DHT22;68131;52.508;5.502;2024-01-30T13:54:17;10.00;79.00
78788;DHT22;68131;52.508;5.502;2024-01-30T13:56:46;9.90;79.10
78788;DHT22;68131;52.508;5.502;2024-01-30T13:59:15;9.90;79.30
78788;DHT22;68131;52.508;5.502;2024-01-30T14:01:50;9.90;79.50
78788;DHT22;68131;52.508;5.502;2024-01-30T14:04:21;9.80;79.70
78788;DHT22;68131;52.508;5.502;2024-01-30T14:06:51;9.80;80.00
78788;DHT22;68131;52.508;5.502;2024-01-30T14:09:20;9.80;80.20
78788;DHT22;68131;52.508;5.502;2024-01-30T14:11:49;9.70;80.30
78788;DHT22;68131;52.508;5.502;2024-01-30T14:14:18;9.70;80.40
78788;DHT22;68131;52.508;5.502;2024-01-30T14:16:47;9.70;80.50
78788;DHT22;68131;52.508;5.502;2024-01-30T14:19:17;9.70;80.70
78788;DHT22;68131;52.508;5.502;2024-01-30T14:21:48;9.70;80.70
78788;DHT22;68131;52.508;5.502;2024-01-30T14:24:17;9.70;80.90
78788;DHT22;68131;52.508;5.502;2024-01-30T14:26:46;9.70;81.00
78788;DHT22;68131;52.508;5.502;2024-01-30T14:29:16;9.70;81.10
78788;DHT22;68131;52.508;5.502;2024-01-30T14:31:46;9.70;81.20
78788;DHT22;68131;52.508;5.502;2024-01-30T14:34:15;9.60;81.30
78788;DHT22;68131;52.508;5.502;2024-01-30T14:36:47;9.60;81.40
78788;DHT22;68131;52.508;5.502;2024-01-30T14:39:19;9.70;81.50
78788;DHT22;68131;52.508;5.502;2024-01-30T14:41:49;9.70;81.50
78788;DHT22;68131;52.508;5.502;2024-01-30T14:44:18;9.70;81.50
78788;DHT22;68131;52.508;5.502;2024-01-30T14:46:50;9.70;81.60
78788;DHT22;68131;52.508;5.502;2024-01-30T14:49:21;9.70;81.60
78788;DHT22;68131;52.508;5.502;2024-01-30T14:51:52;9.70;81.60
78788;DHT22;68131;52.508;5.502;2024-01-30T14:54:22;9.70;81.60
78788;DHT22;68131;52.508;5.502;2024-01-30T14:56:52;9.70;81.60
78788;DHT22;68131;52.508;5.502;2024-01-30T14:59:23;9.70;81.60
78788;DHT22;68131;52.508;5.502;2024-01-30T15:01:55;9.70;81.60
78788;DHT22;68131;52.508;5.502;2024-01-30T15:04:24;9.70;81.70
78788;DHT22;68131;52.508;5.502;2024-01-30T15:06:56;9.70;81.60
78788;DHT22;68131;52.508;5.502;2024-01-30T15:09:25;9.70;81.50
78788;DHT22;68131;52.508;5.502;2024-01-30T15:11:54;9.70;81.50
78788;DHT22;68131;52.508;5.502;2024-01-30T15:14:23;9.60;81.60
78788;DHT22;68131;52.508;5.502;2024-01-30T15:16:53;9.60;81.60
78788;DHT22;68131;52.508;5.502;2024-01-30T15:19:26;9.60;81.70
78788;DHT22;68131;52.508;5.502;2024-01-30T15:21:58;9.60;81.70
78788;DHT22;68131;52.508;5.502;2024-01-30T15:24:27;9.60;81.70
78788;DHT22;68131;52.508;5.502;2024-01-30T15:26:56;9.60;81.70
78788;DHT22;68131;52.508;5.502;2024-01-30T15:29:25;9.60;81.70
78788;DHT22;68131;52.508;5.502;2024-01-30T15:31:56;9.60;81.70
78788;DHT22;68131;52.508;5.502;2024-01-30T15:34:25;9.60;81.70
78788;DHT22;68131;52.508;5.502;2024-01-30T15:36:59;9.60;81.70
78788;DHT22;68131;52.508;5.502;2024-01-30T15:39:29;9.60;81.60
78788;DHT22;68131;52.508;5.502;2024-01-30T15:41:58;9.60;81.60
78788;DHT22;68131;52.508;5.502;2024-01-30T15:44:27;9.60;81.60
78788;DHT22;68131;52.508;5.502;2024-01-30T15:46:57;9.60;81.50
78788;DHT22;68131;52.508;5.502;2024-01-30T15:49:26;9.50;81.50
78788;DHT22;68131;52.508;5.502;2024-01-30T15:51:55;9.50;81.40
78788;DHT22;68131;52.508;5.502;2024-01-30T15:54:27;9.50;81.40
78788;DHT22;68131;52.508;5.502;2024-01-30T15:56:56;9.40;81.40
78788;DHT22;68131;52.508;5.502;2024-01-30T15:59:25;9.40;81.40